sensor_id;sensor_type;location;lat;lon;timestamp;P1;durP1;ratioP1;P2;durP2;ratioP2
3523;SDS011;1776;53.330;11.498;2024-02-21T00:00:18;32.00;;;11.90;;
3523;SDS011;1776;53.330;11.498;2024-02-21T00:02:44;28.33;;;12.50;;
3523;SDS011;1776;53.330;11.498;2024-02-21T00:05:10;38.10;;;13.07;;
3523;SDS011;1776;53.330;11.498;2024-02-21T00:07:35;26.97;;;12.73;;
3523;SDS011;1776;53.330;11.498;2024-02-21T00:10:00;28.43;;;12.37;;
3523;SDS011;1776;53.330;11.498;2024-02-21T00:12:26;35.23;;;12.57;;
3523;SDS011;1776;53.330;11.498;2024-02-21T00:14:51;27.53;;;12.90;;
3523;SDS011;1776;53.330;11.498;2024-02-21T00:17:16;27.63;;;13.03;;
3523;SDS011;1776;53.330;11.498;2024-02-21T00:19:41;24.20;;;12.40;;
3523;SDS011;1776;53.330;11.498;2024-02-21T00:22:07;32.87;;;12.13;;
3523;SDS011;1776;53.330;11.498;2024-02-21T00:24:33;24.40;;;12.07;;
3523;SDS011;1776;53.330;11.498;2024-02-21T00:26:58;29.10;;;12.80;;
3523;SDS011;1776;53.330;11.498;2024-02-21T00:29:23;22.57;;;11.03;;
3523;SDS011;1776;53.330;11.498;2024-02-21T00:31:49;30.97;;;13.60;;
3523;SDS011;1776;53.330;11.498;2024-02-21T00:34:14;31.53;;;13.07;;
3523;SDS011;1776;53.330;11.498;2024-02-21T00:36:40;32.77;;;12.23;;
3523;SDS011;1776;53.330;11.498;2024-02-21T00:39:05;30.47;;;13.93;;
3523;SDS011;1776;53.330;11.498;2024-02-21T00:41:31;30.33;;;12.80;;
3523;SDS011;1776;53.330;11.498;2024-02-21T00:43:56;24.60;;;13.87;;
3523;SDS011;1776;53.330;11.498;2024-02-21T00:46:22;30.10;;;14.90;;
3523;SDS011;1776;53.330;11.498;2024-02-21T00:48:47;29.23;;;12.70;;
3523;SDS011;1776;53.330;11.498;2024-02-21T00:51:13;22.20;;;13.13;;
3523;SDS011;1776;53.330;11.498;2024-02-21T00:53:38;24.53;;;13.57;;
3523;SDS011;1776;53.330;11.498;2024-02-21T00:56:04;22.37;;;13.90;;
3523;SDS011;1776;53.330;11.498;2024-02-21T00:58:30;26.90;;;13.33;;
3523;SDS011;1776;53.330;11.498;2024-02-21T01:00:56;28.60;;;14.03;;
3523;SDS011;1776;53.330;11.498;2024-02-21T01:03:21;23.00;;;13.60;;
3523;SDS011;1776;53.330;11.498;2024-02-21T01:05:46;27.90;;;14.60;;
3523;SDS011;1776;53.330;11.498;2024-02-21T01:08:11;31.47;;;14.40;;
3523;SDS011;1776;53.330;11.498;2024-02-21T01:10:37;29.63;;;14.60;;
3523;SDS011;1776;53.330;11.498;2024-02-21T01:13:02;31.17;;;14.30;;
3523;SDS011;1776;53.330;11.498;2024-02-21T01:15:27;26.07;;;14.20;;
3523;SDS011;1776;53.330;11.498;2024-02-21T01:17:52;29.77;;;15.23;;
3523;SDS011;1776;53.330;11.498;2024-02-21T01:20:20;29.10;;;13.50;;
3523;SDS011;1776;53.330;11.498;2024-02-21T01:22:45;25.40;;;14.77;;
3523;SDS011;1776;53.330;11.498;2024-02-21T01:25:11;31.87;;;14.70;;
3523;SDS011;1776;53.330;11.498;2024-02-21T01:27:36;32.13;;;15.07;;
3523;SDS011;1776;53.330;11.498;2024-02-21T01:30:01;28.63;;;14.37;;
3523;SDS011;1776;53.330;11.498;2024-02-21T01:32:27;33.30;;;15.33;;
3523;SDS011;1776;53.330;11.498;2024-02-21T01:34:52;26.83;;;16.23;;
3523;SDS011;1776;53.330;11.498;2024-02-21T01:37:17;36.87;;;15.17;;
3523;SDS011;1776;53.330;11.498;2024-02-21T01:39:42;30.03;;;17.47;;
3523;SDS011;1776;53.330;11.498;2024-02-21T01:42:08;34.40;;;16.37;;
3523;SDS011;1776;53.330;11.498;2024-02-21T01:44:34;31.40;;;14.00;;
3523;SDS011;1776;53.330;11.498;2024-02-21T01:46:59;29.70;;;15.90;;
3523;SDS011;1776;53.330;11.498;2024-02-21T01:49:25;30.00;;;15.87;;
3523;SDS011;1776;53.330;11.498;2024-02-21T01:51:50;34.27;;;15.93;;
3523;SDS011;1776;53.330;11.498;2024-02-21T01:54:16;35.80;;;16.57;;
3523;SDS011;1776;53.330;11.498;2024-02-21T01:56:43;37.00;;;15.37;;
3523;SDS011;1776;53.330;11.498;2024-02-21T01:59:09;29.87;;;16.03;;
3523;SDS011;1776;53.330;11.498;2024-02-21T02:01:36;33.73;;;15.70;;
3523;SDS011;1776;53.330;11.498;2024-02-21T02:04:01;39.10;;;16.07;;
3523;SDS011;1776;53.330;11.498;2024-02-21T02:06:27;32.70;;;16.07;;
3523;SDS011;1776;53.330;11.498;2024-02-21T02:08:53;24.97;;;15.20;;
3523;SDS011;1776;53.330;11.498;2024-02-21T02:11:19;35.53;;;16.90;;
3523;SDS011;1776;53.330;11.498;2024-02-21T02:13:44;35.33;;;15.53;;
3523;SDS011;1776;53.330;11.498;2024-02-21T02:16:10;31.53;;;15.70;;
3523;SDS011;1776;53.330;11.498;2024-02-21T02:18:35;30.37;;;15.77;;
3523;SDS011;1776;53.330;11.498;2024-02-21T02:21:00;30.40;;;14.50;;
3523;SDS011;1776;53.330;11.498;2024-02-21T02:25:53;30.30;;;16.33;;
3523;SDS011;1776;53.330;11.498;2024-02-21T02:28:18;29.13;;;14.63;;
3523;SDS011;1776;53.330;11.498;2024-02-21T02:30:44;31.47;;;15.63;;
3523;SDS011;1776;53.330;11.498;2024-02-21T02:33:09;28.17;;;16.37;;
3523;SDS011;1776;53.330;11.498;2024-02-21T02:35:35;33.00;;;16.90;;
3523;SDS011;1776;53.330;11.498;2024-02-21T02:38:01;33.67;;;17.27;;
3523;SDS011;1776;53.330;11.498;2024-02-21T02:40:27;29.57;;;18.47;;
3523;SDS011;1776;53.330;11.498;2024-02-21T02:42:52;28.70;;;16.57;;
3523;SDS011;1776;53.330;11.498;2024-02-21T02:45:20;30.17;;;16.17;;
3523;SDS011;1776;53.330;11.498;2024-02-21T02:47:47;33.47;;;14.30;;
3523;SDS011;1776;53.330;11.498;2024-02-21T02:50:12;34.20;;;17.07;;
3523;SDS011;1776;53.330;11.498;2024-02-21T02:52:38;34.30;;;16.20;;
3523;SDS011;1776;53.330;11.498;2024-02-21T02:55:04;38.47;;;16.90;;
3523;SDS011;1776;53.330;11.498;2024-02-21T02:57:30;24.20;;;16.80;;
3523;SDS011;1776;53.330;11.498;2024-02-21T02:59:55;33.83;;;16.87;;
3523;SDS011;1776;53.330;11.498;2024-02-21T03:02:20;36.03;;;17.37;;
3523;SDS011;1776;53.330;11.498;2024-02-21T03:04:46;34.20;;;18.73;;
3523;SDS011;1776;53.330;11.498;2024-02-21T03:07:11;34.50;;;18.57;;
3523;SDS011;1776;53.330;11.498;2024-02-21T03:09:39;40.30;;;17.90;;
3523;SDS011;1776;53.330;11.498;2024-02-21T03:12:05;42.97;;;18.77;;
3523;SDS011;1776;53.330;11.498;2024-02-21T03:14:31;30.27;;;16.20;;
3523;SDS011;1776;53.330;11.498;2024-02-21T03:17:00;34.87;;;17.30;;
3523;SDS011;1776;53.330;11.498;2024-02-21T03:19:25;37.80;;;18.77;;
3523;SDS011;1776;53.330;11.498;2024-02-21T03:21:53;35.30;;;15.37;;
3523;SDS011;1776;53.330;11.498;2024-02-21T03:24:19;35.37;;;17.67;;
3523;SDS011;1776;53.330;11.498;2024-02-21T03:26:44;26.27;;;16.17;;
3523;SDS011;1776;53.330;11.498;2024-02-21T03:29:16;29.77;;;17.33;;
3523;SDS011;1776;53.330;11.498;2024-02-21T03:31:42;35.97;;;18.97;;
3523;SDS011;1776;53.330;11.498;2024-02-21T03:34:09;36.50;;;19.23;;
3523;SDS011;1776;53.330;11.498;2024-02-21T03:36:36;34.70;;;18.17;;
3523;SDS011;1776;53.330;11.498;2024-02-21T03:39:01;28.00;;;17.00;;
3523;SDS011;1776;53.330;11.498;2024-02-21T03:41:27;31.80;;;18.30;;
3523;SDS011;1776;53.330;11.498;2024-02-21T03:43:52;32.20;;;18.90;;
3523;SDS011;1776;53.330;11.498;2024-02-21T03:46:17;53.33;;;19.73;;
3523;SDS011;1776;53.330;11.498;2024-02-21T03:48:43;39.10;;;20.40;;
3523;SDS011;1776;53.330;11.498;2024-02-21T03:51:08;36.83;;;19.60;;
3523;SDS011;1776;53.330;11.498;2024-02-21T03:53:33;44.00;;;20.13;;
3523;SDS011;1776;53.330;11.498;2024-02-21T03:56:02;34.20;;;18.40;;
3523;SDS011;1776;53.330;11.498;2024-02-21T03:58:29;36.73;;;19.27;;
3523;SDS011;1776;53.330;11.498;2024-02-21T04:00:59;36.40;;;18.43;;
3523;SDS011;1776;53.330;11.498;2024-02-21T04:03:25;33.57;;;18.90;;
3523;SDS011;1776;53.330;11.498;2024-02-21T04:05:50;34.17;;;18.03;;
3523;SDS011;1776;53.330;11.498;2024-02-21T04:08:15;35.50;;;17.93;;
3523;SDS011;1776;53.330;11.498;2024-02-21T04:10:41;37.93;;;19.70;;
3523;SDS011;1776;53.330;11.498;2024-02-21T04:13:06;37.87;;;18.57;;
3523;SDS011;1776;53.330;11.498;2024-02-21T04:15:32;32.53;;;18.30;;
3523;SDS011;1776;53.330;11.498;2024-02-21T04:17:57;37.43;;;18.30;;
3523;SDS011;1776;53.330;11.498;2024-02-21T04:20:22;40.23;;;17.60;;
3523;SDS011;1776;53.330;11.498;2024-02-21T04:22:48;37.50;;;18.87;;
3523;SDS011;1776;53.330;11.498;2024-02-21T04:25:13;31.87;;;17.77;;
3523;SDS011;1776;53.330;11.498;2024-02-21T04:27:39;37.50;;;17.90;;
3523;SDS011;1776;53.330;11.498;2024-02-21T04:30:04;39.53;;;17.87;;
3523;SDS011;1776;53.330;11.498;2024-02-21T04:32:30;39.10;;;19.90;;
3523;SDS011;1776;53.330;11.498;2024-02-21T04:34:55;44.70;;;18.87;;
3523;SDS011;1776;53.330;11.498;2024-02-21T04:37:20;39.27;;;20.57;;
3523;SDS011;1776;53.330;11.498;2024-02-21T04:39:46;35.53;;;18.77;;
3523;SDS011;1776;53.330;11.498;2024-02-21T04:42:11;41.10;;;19.40;;
3523;SDS011;1776;53.330;11.498;2024-02-21T04:44:37;38.53;;;18.93;;
3523;SDS011;1776;53.330;11.498;2024-02-21T04:47:03;33.37;;;18.27;;
3523;SDS011;1776;53.330;11.498;2024-02-21T04:49:28;34.70;;;19.27;;
3523;SDS011;1776;53.330;11.498;2024-02-21T04:51:54;46.27;;;19.37;;
3523;SDS011;1776;53.330;11.498;2024-02-21T04:54:19;35.90;;;18.63;;
3523;SDS011;1776;53.330;11.498;2024-02-21T04:56:45;36.20;;;18.70;;
3523;SDS011;1776;53.330;11.498;2024-02-21T04:59:10;33.70;;;18.13;;
3523;SDS011;1776;53.330;11.498;2024-02-21T05:01:35;44.53;;;20.97;;
3523;SDS011;1776;53.330;11.498;2024-02-21T05:04:00;39.83;;;18.13;;
3523;SDS011;1776;53.330;11.498;2024-02-21T05:06:26;43.50;;;18.90;;
3523;SDS011;1776;53.330;11.498;2024-02-21T05:08:51;40.90;;;19.33;;
3523;SDS011;1776;53.330;11.498;2024-02-21T05:11:16;41.27;;;20.03;;
3523;SDS011;1776;53.330;11.498;2024-02-21T05:13:41;35.90;;;19.20;;
3523;SDS011;1776;53.330;11.498;2024-02-21T05:16:07;39.73;;;18.07;;
3523;SDS011;1776;53.330;11.498;2024-02-21T05:18:32;31.30;;;18.07;;
3523;SDS011;1776;53.330;11.498;2024-02-21T05:20:58;35.07;;;17.57;;
3523;SDS011;1776;53.330;11.498;2024-02-21T05:23:24;40.50;;;18.40;;
3523;SDS011;1776;53.330;11.498;2024-02-21T05:25:49;35.20;;;17.57;;
3523;SDS011;1776;53.330;11.498;2024-02-21T05:28:14;33.67;;;19.10;;
3523;SDS011;1776;53.330;11.498;2024-02-21T05:30:40;37.27;;;18.33;;
3523;SDS011;1776;53.330;11.498;2024-02-21T05:33:06;38.10;;;16.93;;
3523;SDS011;1776;53.330;11.498;2024-02-21T05:35:32;31.23;;;17.27;;
3523;SDS011;1776;53.330;11.498;2024-02-21T05:37:57;35.70;;;17.80;;
3523;SDS011;1776;53.330;11.498;2024-02-21T05:40:23;35.30;;;18.13;;
3523;SDS011;1776;53.330;11.498;2024-02-21T05:42:48;31.70;;;18.50;;
3523;SDS011;1776;53.330;11.498;2024-02-21T05:45:13;32.20;;;15.40;;
3523;SDS011;1776;53.330;11.498;2024-02-21T05:47:40;32.77;;;17.37;;
3523;SDS011;1776;53.330;11.498;2024-02-21T05:50:06;34.43;;;17.90;;
3523;SDS011;1776;53.330;11.498;2024-02-21T05:52:31;31.23;;;16.57;;
3523;SDS011;1776;53.330;11.498;2024-02-21T05:54:57;32.57;;;17.00;;
3523;SDS011;1776;53.330;11.498;2024-02-21T05:57:22;32.17;;;16.87;;
3523;SDS011;1776;53.330;11.498;2024-02-21T05:59:47;34.83;;;19.10;;
3523;SDS011;1776;53.330;11.498;2024-02-21T06:02:12;40.60;;;17.33;;
3523;SDS011;1776;53.330;11.498;2024-02-21T06:04:38;32.40;;;17.87;;
3523;SDS011;1776;53.330;11.498;2024-02-21T06:07:04;33.50;;;17.30;;
3523;SDS011;1776;53.330;11.498;2024-02-21T06:09:30;35.77;;;17.33;;
3523;SDS011;1776;53.330;11.498;2024-02-21T06:11:55;41.43;;;17.13;;
3523;SDS011;1776;53.330;11.498;2024-02-21T06:14:20;34.73;;;19.57;;
3523;SDS011;1776;53.330;11.498;2024-02-21T06:16:45;36.13;;;18.30;;
3523;SDS011;1776;53.330;11.498;2024-02-21T06:19:11;36.50;;;19.20;;
3523;SDS011;1776;53.330;11.498;2024-02-21T06:21:36;29.30;;;17.33;;
3523;SDS011;1776;53.330;11.498;2024-02-21T06:24:02;34.63;;;17.90;;
3523;SDS011;1776;53.330;11.498;2024-02-21T06:26:27;33.67;;;18.40;;
3523;SDS011;1776;53.330;11.498;2024-02-21T06:28:53;31.83;;;18.37;;
3523;SDS011;1776;53.330;11.498;2024-02-21T06:31:18;38.90;;;17.50;;
3523;SDS011;1776;53.330;11.498;2024-02-21T06:33:43;37.23;;;18.20;;
3523;SDS011;1776;53.330;11.498;2024-02-21T06:36:08;36.23;;;16.57;;
3523;SDS011;1776;53.330;11.498;2024-02-21T06:38:34;29.10;;;17.10;;
3523;SDS011;1776;53.330;11.498;2024-02-21T06:40:59;32.87;;;16.90;;
3523;SDS011;1776;53.330;11.498;2024-02-21T06:43:25;49.10;;;19.43;;
3523;SDS011;1776;53.330;11.498;2024-02-21T06:45:51;33.37;;;19.03;;
3523;SDS011;1776;53.330;11.498;2024-02-21T06:48:16;36.60;;;18.60;;
3523;SDS011;1776;53.330;11.498;2024-02-21T06:50:43;40.23;;;18.90;;
3523;SDS011;1776;53.330;11.498;2024-02-21T06:53:08;33.10;;;16.77;;
3523;SDS011;1776;53.330;11.498;2024-02-21T06:55:33;31.13;;;17.80;;
3523;SDS011;1776;53.330;11.498;2024-02-21T06:57:59;33.40;;;18.40;;
3523;SDS011;1776;53.330;11.498;2024-02-21T07:00:24;33.60;;;17.57;;
3523;SDS011;1776;53.330;11.498;2024-02-21T07:02:50;31.27;;;17.73;;
3523;SDS011;1776;53.330;11.498;2024-02-21T07:05:16;30.50;;;15.77;;
3523;SDS011;1776;53.330;11.498;2024-02-21T07:07:41;29.93;;;15.93;;
3523;SDS011;1776;53.330;11.498;2024-02-21T07:10:06;23.30;;;15.00;;
3523;SDS011;1776;53.330;11.498;2024-02-21T07:12:32;28.97;;;16.50;;
3523;SDS011;1776;53.330;11.498;2024-02-21T07:14:58;42.00;;;16.10;;
3523;SDS011;1776;53.330;11.498;2024-02-21T07:17:23;29.23;;;16.13;;
3523;SDS011;1776;53.330;11.498;2024-02-21T07:19:49;27.40;;;17.23;;
3523;SDS011;1776;53.330;11.498;2024-02-21T07:22:14;27.20;;;15.30;;
3523;SDS011;1776;53.330;11.498;2024-02-21T07:24:39;30.00;;;15.17;;
3523;SDS011;1776;53.330;11.498;2024-02-21T07:27:05;29.03;;;15.60;;
3523;SDS011;1776;53.330;11.498;2024-02-21T07:29:30;26.93;;;14.73;;
3523;SDS011;1776;53.330;11.498;2024-02-21T07:31:56;26.23;;;14.03;;
3523;SDS011;1776;53.330;11.498;2024-02-21T07:34:21;24.23;;;14.60;;
3523;SDS011;1776;53.330;11.498;2024-02-21T07:36:46;23.80;;;15.50;;
3523;SDS011;1776;53.330;11.498;2024-02-21T07:39:12;22.23;;;14.10;;
3523;SDS011;1776;53.330;11.498;2024-02-21T07:41:37;19.37;;;12.80;;
3523;SDS011;1776;53.330;11.498;2024-02-21T07:44:04;23.17;;;13.77;;
3523;SDS011;1776;53.330;11.498;2024-02-21T07:46:30;29.33;;;14.27;;
3523;SDS011;1776;53.330;11.498;2024-02-21T07:48:55;20.03;;;13.20;;
3523;SDS011;1776;53.330;11.498;2024-02-21T07:51:20;27.10;;;13.43;;
3523;SDS011;1776;53.330;11.498;2024-02-21T07:53:45;25.47;;;14.43;;
3523;SDS011;1776;53.330;11.498;2024-02-21T07:56:12;20.97;;;13.37;;
3523;SDS011;1776;53.330;11.498;2024-02-21T07:58:38;20.47;;;12.60;;
3523;SDS011;1776;53.330;11.498;2024-02-21T08:01:04;23.70;;;12.73;;
3523;SDS011;1776;53.330;11.498;2024-02-21T08:03:29;21.70;;;11.87;;
3523;SDS011;1776;53.330;11.498;2024-02-21T08:05:54;25.50;;;14.23;;
3523;SDS011;1776;53.330;11.498;2024-02-21T08:08:20;19.10;;;13.53;;
3523;SDS011;1776;53.330;11.498;2024-02-21T08:10:47;22.57;;;13.90;;
3523;SDS011;1776;53.330;11.498;2024-02-21T08:13:12;23.37;;;12.60;;
3523;SDS011;1776;53.330;11.498;2024-02-21T08:15:38;23.90;;;11.97;;
3523;SDS011;1776;53.330;11.498;2024-02-21T08:18:04;22.33;;;12.20;;
3523;SDS011;1776;53.330;11.498;2024-02-21T08:20:30;22.30;;;13.07;;
3523;SDS011;1776;53.330;11.498;2024-02-21T08:22:55;23.13;;;11.50;;
3523;SDS011;1776;53.330;11.498;2024-02-21T08:25:21;20.13;;;10.60;;
3523;SDS011;1776;53.330;11.498;2024-02-21T08:27:46;16.70;;;11.57;;
3523;SDS011;1776;53.330;11.498;2024-02-21T08:30:11;20.80;;;13.50;;
3523;SDS011;1776;53.330;11.498;2024-02-21T08:32:37;17.43;;;10.70;;
3523;SDS011;1776;53.330;11.498;2024-02-21T08:35:02;17.03;;;9.60;;
3523;SDS011;1776;53.330;11.498;2024-02-21T08:37:28;19.73;;;12.30;;
3523;SDS011;1776;53.330;11.498;2024-02-21T08:39:53;19.80;;;12.07;;
3523;SDS011;1776;53.330;11.498;2024-02-21T08:42:19;25.00;;;12.53;;
3523;SDS011;1776;53.330;11.498;2024-02-21T08:44:44;17.53;;;10.60;;
3523;SDS011;1776;53.330;11.498;2024-02-21T08:47:10;20.63;;;11.07;;
3523;SDS011;1776;53.330;11.498;2024-02-21T08:49:36;17.03;;;11.00;;
3523;SDS011;1776;53.330;11.498;2024-02-21T08:52:02;18.47;;;10.40;;
3523;SDS011;1776;53.330;11.498;2024-02-21T08:54:27;20.33;;;11.00;;
3523;SDS011;1776;53.330;11.498;2024-02-21T08:56:53;13.40;;;8.97;;
3523;SDS011;1776;53.330;11.498;2024-02-21T08:59:19;13.70;;;9.80;;
3523;SDS011;1776;53.330;11.498;2024-02-21T09:01:44;15.33;;;9.77;;
3523;SDS011;1776;53.330;11.498;2024-02-21T09:04:09;14.70;;;9.80;;
3523;SDS011;1776;53.330;11.498;2024-02-21T09:06:34;10.67;;;7.60;;
3523;SDS011;1776;53.330;11.498;2024-02-21T09:09:04;15.77;;;8.83;;
3523;SDS011;1776;53.330;11.498;2024-02-21T09:11:29;20.63;;;9.03;;
3523;SDS011;1776;53.330;11.498;2024-02-21T09:13:54;13.70;;;9.73;;
3523;SDS011;1776;53.330;11.498;2024-02-21T09:16:20;19.47;;;8.77;;
3523;SDS011;1776;53.330;11.498;2024-02-21T09:18:45;14.00;;;8.53;;
3523;SDS011;1776;53.330;11.498;2024-02-21T09:21:11;16.50;;;8.50;;
3523;SDS011;1776;53.330;11.498;2024-02-21T09:23:36;17.93;;;10.80;;
3523;SDS011;1776;53.330;11.498;2024-02-21T09:26:02;9.50;;;6.80;;
3523;SDS011;1776;53.330;11.498;2024-02-21T09:28:29;14.03;;;7.87;;
3523;SDS011;1776;53.330;11.498;2024-02-21T09:30:54;13.33;;;8.57;;
3523;SDS011;1776;53.330;11.498;2024-02-21T09:33:19;14.20;;;8.50;;
3523;SDS011;1776;53.330;11.498;2024-02-21T09:35:45;16.67;;;7.50;;
3523;SDS011;1776;53.330;11.498;2024-02-21T09:38:10;8.37;;;6.33;;
3523;SDS011;1776;53.330;11.498;2024-02-21T09:40:35;11.40;;;8.10;;
3523;SDS011;1776;53.330;11.498;2024-02-21T09:43:04;15.20;;;8.10;;
3523;SDS011;1776;53.330;11.498;2024-02-21T09:45:32;13.07;;;8.23;;
3523;SDS011;1776;53.330;11.498;2024-02-21T09:50:43;10.90;;;8.03;;
3523;SDS011;1776;53.330;11.498;2024-02-21T09:53:09;10.50;;;7.40;;
3523;SDS011;1776;53.330;11.498;2024-02-21T09:55:38;12.27;;;7.67;;
3523;SDS011;1776;53.330;11.498;2024-02-21T09:58:05;12.07;;;7.63;;
3523;SDS011;1776;53.330;11.498;2024-02-21T10:00:32;10.10;;;7.87;;
3523;SDS011;1776;53.330;11.498;2024-02-21T10:02:58;13.63;;;7.93;;
3523;SDS011;1776;53.330;11.498;2024-02-21T10:05:24;14.00;;;8.20;;
3523;SDS011;1776;53.330;11.498;2024-02-21T10:07:51;8.40;;;6.27;;
3523;SDS011;1776;53.330;11.498;2024-02-21T10:10:16;10.37;;;7.10;;
3523;SDS011;1776;53.330;11.498;2024-02-21T10:12:51;18.00;;;7.70;;
3523;SDS011;1776;53.330;11.498;2024-02-21T10:15:20;10.13;;;7.07;;
3523;SDS011;1776;53.330;11.498;2024-02-21T10:17:46;15.40;;;8.40;;
3523;SDS011;1776;53.330;11.498;2024-02-21T10:20:12;9.03;;;6.60;;
3523;SDS011;1776;53.330;11.498;2024-02-21T10:22:39;10.63;;;7.50;;
3523;SDS011;1776;53.330;11.498;2024-02-21T10:25:11;14.63;;;8.83;;
3523;SDS011;1776;53.330;11.498;2024-02-21T10:27:38;12.60;;;7.33;;
3523;SDS011;1776;53.330;11.498;2024-02-21T10:30:07;9.33;;;6.87;;
3523;SDS011;1776;53.330;11.498;2024-02-21T10:32:48;10.53;;;6.80;;
3523;SDS011;1776;53.330;11.498;2024-02-21T10:35:30;10.70;;;6.77;;
3523;SDS011;1776;53.330;11.498;2024-02-21T10:37:56;10.40;;;6.93;;
3523;SDS011;1776;53.330;11.498;2024-02-21T10:40:23;10.53;;;6.83;;
3523;SDS011;1776;53.330;11.498;2024-02-21T10:42:56;14.73;;;7.90;;
3523;SDS011;1776;53.330;11.498;2024-02-21T10:45:24;14.20;;;7.90;;
3523;SDS011;1776;53.330;11.498;2024-02-21T10:48:11;9.37;;;6.57;;
3523;SDS011;1776;53.330;11.498;2024-02-21T10:51:02;11.57;;;7.40;;
3523;SDS011;1776;53.330;11.498;2024-02-21T10:56:30;11.10;;;7.50;;
3523;SDS011;1776;53.330;11.498;2024-02-21T10:59:00;9.23;;;6.83;;
3523;SDS011;1776;53.330;11.498;2024-02-21T11:01:26;12.87;;;8.20;;
3523;SDS011;1776;53.330;11.498;2024-02-21T11:03:54;10.50;;;7.60;;
3523;SDS011;1776;53.330;11.498;2024-02-21T11:06:21;18.97;;;9.17;;
3523;SDS011;1776;53.330;11.498;2024-02-21T11:08:47;14.03;;;8.33;;
3523;SDS011;1776;53.330;11.498;2024-02-21T11:11:14;13.23;;;9.50;;
3523;SDS011;1776;53.330;11.498;2024-02-21T11:13:42;19.07;;;9.63;;
3523;SDS011;1776;53.330;11.498;2024-02-21T11:16:11;11.73;;;9.57;;
3523;SDS011;1776;53.330;11.498;2024-02-21T11:18:46;15.17;;;10.37;;
3523;SDS011;1776;53.330;11.498;2024-02-21T11:21:11;16.90;;;9.67;;
3523;SDS011;1776;53.330;11.498;2024-02-21T11:23:36;17.80;;;11.90;;
3523;SDS011;1776;53.330;11.498;2024-02-21T11:28:31;22.90;;;12.13;;
3523;SDS011;1776;53.330;11.498;2024-02-21T11:31:06;15.70;;;10.90;;
3523;SDS011;1776;53.330;11.498;2024-02-21T11:33:33;21.10;;;12.20;;
3523;SDS011;1776;53.330;11.498;2024-02-21T11:35:59;17.17;;;10.70;;
3523;SDS011;1776;53.330;11.498;2024-02-21T11:38:24;18.30;;;12.20;;
3523;SDS011;1776;53.330;11.498;2024-02-21T11:40:50;22.37;;;13.53;;
3523;SDS011;1776;53.330;11.498;2024-02-21T11:43:15;22.03;;;12.27;;
3523;SDS011;1776;53.330;11.498;2024-02-21T11:45:41;25.87;;;12.60;;
3523;SDS011;1776;53.330;11.498;2024-02-21T11:48:07;24.60;;;13.27;;
3523;SDS011;1776;53.330;11.498;2024-02-21T11:50:33;31.23;;;15.00;;
3523;SDS011;1776;53.330;11.498;2024-02-21T11:53:00;31.93;;;15.93;;
3523;SDS011;1776;53.330;11.498;2024-02-21T11:55:25;29.50;;;17.30;;
3523;SDS011;1776;53.330;11.498;2024-02-21T11:57:50;27.60;;;15.07;;
3523;SDS011;1776;53.330;11.498;2024-02-21T12:00:17;27.23;;;15.63;;
3523;SDS011;1776;53.330;11.498;2024-02-21T12:02:47;28.50;;;15.47;;
3523;SDS011;1776;53.330;11.498;2024-02-21T12:05:12;23.03;;;13.93;;
3523;SDS011;1776;53.330;11.498;2024-02-21T12:07:38;23.43;;;15.50;;
3523;SDS011;1776;53.330;11.498;2024-02-21T12:10:08;26.30;;;13.90;;
3523;SDS011;1776;53.330;11.498;2024-02-21T12:12:37;29.33;;;14.83;;
3523;SDS011;1776;53.330;11.498;2024-02-21T12:15:04;23.60;;;15.20;;
3523;SDS011;1776;53.330;11.498;2024-02-21T12:17:30;23.60;;;13.27;;
3523;SDS011;1776;53.330;11.498;2024-02-21T12:20:00;21.80;;;13.80;;
3523;SDS011;1776;53.330;11.498;2024-02-21T12:22:25;23.00;;;13.47;;
3523;SDS011;1776;53.330;11.498;2024-02-21T12:24:52;26.27;;;14.17;;
3523;SDS011;1776;53.330;11.498;2024-02-21T12:27:17;22.27;;;12.67;;
3523;SDS011;1776;53.330;11.498;2024-02-21T12:29:42;19.23;;;13.10;;
3523;SDS011;1776;53.330;11.498;2024-02-21T12:32:07;21.50;;;11.73;;
3523;SDS011;1776;53.330;11.498;2024-02-21T12:34:33;19.70;;;13.40;;
3523;SDS011;1776;53.330;11.498;2024-02-21T12:36:58;23.30;;;11.70;;
3523;SDS011;1776;53.330;11.498;2024-02-21T12:39:24;22.67;;;11.00;;
3523;SDS011;1776;53.330;11.498;2024-02-21T12:41:49;29.73;;;10.87;;
3523;SDS011;1776;53.330;11.498;2024-02-21T12:44:15;14.40;;;9.67;;
3523;SDS011;1776;53.330;11.498;2024-02-21T12:46:41;14.73;;;9.90;;
3523;SDS011;1776;53.330;11.498;2024-02-21T12:49:06;16.07;;;9.97;;
3523;SDS011;1776;53.330;11.498;2024-02-21T12:51:34;18.37;;;9.00;;
3523;SDS011;1776;53.330;11.498;2024-02-21T12:54:00;13.87;;;9.73;;
3523;SDS011;1776;53.330;11.498;2024-02-21T12:56:26;17.73;;;9.83;;
3523;SDS011;1776;53.330;11.498;2024-02-21T12:58:52;21.10;;;9.20;;
3523;SDS011;1776;53.330;11.498;2024-02-21T13:01:18;18.10;;;8.67;;
3523;SDS011;1776;53.330;11.498;2024-02-21T13:03:43;12.07;;;8.07;;
3523;SDS011;1776;53.330;11.498;2024-02-21T13:06:08;16.27;;;7.83;;
3523;SDS011;1776;53.330;11.498;2024-02-21T13:08:35;12.33;;;8.27;;
3523;SDS011;1776;53.330;11.498;2024-02-21T13:11:01;12.57;;;7.90;;
3523;SDS011;1776;53.330;11.498;2024-02-21T13:13:26;13.07;;;7.90;;
3523;SDS011;1776;53.330;11.498;2024-02-21T13:15:52;9.53;;;6.67;;
3523;SDS011;1776;53.330;11.498;2024-02-21T13:18:17;16.90;;;7.37;;
3523;SDS011;1776;53.330;11.498;2024-02-21T13:20:42;9.43;;;6.40;;
3523;SDS011;1776;53.330;11.498;2024-02-21T13:23:07;13.50;;;7.10;;
3523;SDS011;1776;53.330;11.498;2024-02-21T13:25:33;7.40;;;5.13;;
3523;SDS011;1776;53.330;11.498;2024-02-21T13:27:58;6.87;;;5.53;;
3523;SDS011;1776;53.330;11.498;2024-02-21T13:30:23;15.03;;;7.20;;
3523;SDS011;1776;53.330;11.498;2024-02-21T13:32:50;19.10;;;7.07;;
3523;SDS011;1776;53.330;11.498;2024-02-21T13:35:15;8.20;;;5.80;;
3523;SDS011;1776;53.330;11.498;2024-02-21T13:37:41;11.03;;;5.80;;
3523;SDS011;1776;53.330;11.498;2024-02-21T13:40:07;21.53;;;7.70;;
3523;SDS011;1776;53.330;11.498;2024-02-21T13:42:38;10.70;;;7.17;;
3523;SDS011;1776;53.330;11.498;2024-02-21T13:45:04;13.67;;;8.07;;
3523;SDS011;1776;53.330;11.498;2024-02-21T13:47:30;13.13;;;8.90;;
3523;SDS011;1776;53.330;11.498;2024-02-21T13:49:57;16.97;;;9.40;;
3523;SDS011;1776;53.330;11.498;2024-02-21T13:52:22;15.93;;;9.07;;
3523;SDS011;1776;53.330;11.498;2024-02-21T13:54:51;17.80;;;8.80;;
3523;SDS011;1776;53.330;11.498;2024-02-21T13:57:16;14.23;;;9.30;;
3523;SDS011;1776;53.330;11.498;2024-02-21T13:59:41;14.33;;;9.73;;
3523;SDS011;1776;53.330;11.498;2024-02-21T14:02:07;16.37;;;9.90;;
3523;SDS011;1776;53.330;11.498;2024-02-21T14:04:33;24.37;;;9.37;;
3523;SDS011;1776;53.330;11.498;2024-02-21T14:06:59;13.33;;;9.03;;
3523;SDS011;1776;53.330;11.498;2024-02-21T14:09:24;14.07;;;9.73;;
3523;SDS011;1776;53.330;11.498;2024-02-21T14:11:49;15.33;;;10.20;;
3523;SDS011;1776;53.330;11.498;2024-02-21T14:14:15;18.17;;;9.50;;
3523;SDS011;1776;53.330;11.498;2024-02-21T14:16:40;18.43;;;8.80;;
3523;SDS011;1776;53.330;11.498;2024-02-21T14:19:06;16.20;;;8.57;;
3523;SDS011;1776;53.330;11.498;2024-02-21T14:21:33;12.87;;;8.53;;
3523;SDS011;1776;53.330;11.498;2024-02-21T14:23:58;17.53;;;9.60;;
3523;SDS011;1776;53.330;11.498;2024-02-21T14:26:26;19.93;;;8.70;;
3523;SDS011;1776;53.330;11.498;2024-02-21T14:28:52;14.10;;;9.70;;
3523;SDS011;1776;53.330;11.498;2024-02-21T14:31:17;15.77;;;10.80;;
3523;SDS011;1776;53.330;11.498;2024-02-21T14:33:42;17.57;;;10.03;;
3523;SDS011;1776;53.330;11.498;2024-02-21T14:36:08;24.00;;;11.50;;
3523;SDS011;1776;53.330;11.498;2024-02-21T14:38:33;18.73;;;11.67;;
3523;SDS011;1776;53.330;11.498;2024-02-21T14:41:00;14.40;;;9.60;;